Time;durP1;ratioP1;P1;durP2;ratioP2;P2;SDS_P1;SDS_P2;PMS_P1;PMS_P2;Temp;Humidity;BMP_temperature;BMP_pressure;BME280_temperature;BME280_humidity;BME280_pressure;Samples;Min_cycle;Max_cycle;Signal;HPM_P1;HPM_P2
2023/01/06 00:10:46;;;;;;;;;;;;;;;;;;;;;
2023/01/06 00:13:42;;;;;;;;;;;;;;;;;;;;;
2023/01/06 00:19:04;;;;;;;9.80;3.70;;;;;;;9.02;100.00;101666.19;4864013;29;20045;-95
2023/01/06 00:22:03;;;;;;;;;;;;;;;;;;;;;
2023/01/06 00:24:39;;;;;;;7.60;3.60;;;;;;;9.10;100.00;101674.19;4917228;29;20400;-94
2023/01/06 00:27:12;;;;;;;11.65;3.58;;;;;;;9.10;100.00;101681.50;4916747;29;20111;-96
2023/01/06 00:50:36;;;;;;;5.80;2.55;;;;;;;9.13;100.00;101663.00;4826747;29;20102;-95
2023/01/06 01:01:42;;;;;;;8.52;2.83;;;;;;;9.08;100.00;101656.44;4900810;29;20062;-94
2023/01/06 01:04:39;;;;;;;6.05;3.05;;;;;;;9.08;100.00;101651.03;4884894;29;20470;-94
2023/01/06 01:10:57;;;;;;;7.05;2.50;;;;;;;9.16;100.00;101658.25;4921149;29;20051;-94
2023/01/06 01:13:32;;;;;;;4.97;2.35;;;;;;;9.07;100.00;101646.66;4920163;29;20469;-95
2023/01/06 01:16:20;;;;;;;7.93;2.70;;;;;;;9.15;100.00;101651.16;4920439;29;20043;-94
2023/01/06 01:18:58;;;;;;;6.32;2.00;;;;;;;9.17;100.00;101649.94;4906072;29;20444;-94
2023/01/06 01:31:55;;;;;;;;;;;;;;;;;;;;;
2023/01/06 01:37:52;;;;;;;5.05;1.42;;;;;;;9.17;100.00;101632.84;4881913;29;20087;-93
2023/01/06 01:47:51;;;;;;;6.80;1.50;;;;;;;9.19;100.00;101620.78;4896343;29;20101;-94
2023/01/06 01:58:31;;;;;;;5.15;1.00;;;;;;;9.25;100.00;101605.69;4804949;29;20064;-94
2023/01/06 02:04:50;;;;;;;;;;;;;;;;;;;;;
2023/01/06 02:11:31;;;;;;;;;;;;;;;;;;;;;
2023/01/06 02:41:29;;;;;;;3.95;0.70;;;;;;;9.44;100.00;101575.28;4873024;29;20044;-94
2023/01/06 02:44:43;;;;;;;5.68;0.82;;;;;;;9.46;100.00;101559.69;4891372;29;20044;-94
2023/01/06 02:47:29;;;;;;;4.72;0.98;;;;;;;9.43;100.00;101556.53;4830606;29;20064;-94
2023/01/06 02:50:30;;;;;;;5.13;0.90;;;;;;;9.42;100.00;101539.44;4887547;29;20036;-94
2023/01/06 02:53:20;;;;;;;;;;;;;;;;;;;;;
2023/01/06 02:55:54;;;;;;;3.78;0.75;;;;;;;9.53;100.00;101537.25;4900860;29;20062;-94
2023/01/06 02:59:20;;;;;;;;;;;;;;;;;;;;;
2023/01/06 03:05:03;;;;;;;3.13;0.70;;;;;;;9.50;100.00;101527.63;4822463;29;20122;-95
2023/01/06 03:10:57;;;;;;;2.25;0.77;;;;;;;9.54;100.00;101525.41;4934744;29;20050;-95
2023/01/06 03:24:16;;;;;;;;;;;;;;;;;;;;;
2023/01/06 03:34:06;;;;;;;2.53;0.70;;;;;;;9.65;100.00;101533.88;4842470;29;20109;-93
2023/01/06 03:40:05;;;;;;;1.73;0.68;;;;;;;9.58;100.00;101503.16;4842258;29;20057;-95
2023/01/06 03:53:17;;;;;;;;;;;;;;;;;;;;;
2023/01/06 04:03:25;;;;;;;3.85;1.00;;;;;;;9.68;100.00;101501.97;4897900;29;20077;-95
2023/01/06 04:06:02;;;;;;;;;;;;;;;;;;;;;
2023/01/06 04:09:04;;;;;;;;;;;;;;;;;;;;;
2023/01/06 04:14:30;;;;;;;4.00;1.00;;;;;;;9.74;100.00;101503.91;4885295;29;20484;-95
2023/01/06 04:24:14;;;;;;;4.68;0.70;;;;;;;9.77;100.00;101463.72;4880731;29;20051;-94
2023/01/06 04:30:25;;;;;;;;;;;;;;;;;;;;;
2023/01/06 04:33:03;;;;;;;1.42;0.70;;;;;;;9.75;100.00;101462.25;4782239;30;20138;-95
2023/01/06 04:39:09;;;;;;;2.80;0.70;;;;;;;9.75;100.00;101457.66;4831758;29;20498;-94
2023/01/06 04:41:54;;;;;;;3.38;0.60;;;;;;;9.71;100.00;101431.97;4826038;29;20042;-94
2023/01/06 04:44:55;;;;;;;3.00;0.52;;;;;;;9.71;100.00;101433.84;4882420;29;20046;-93
2023/01/06 04:47:30;;;;;;;4.45;0.65;;;;;;;9.72;100.00;101422.00;4902095;29;20040;-94
2023/01/06 04:50:36;;;;;;;2.92;0.50;;;;;;;9.79;100.00;101429.13;4885256;29;20041;-94
2023/01/06 04:53:17;;;;;;;;;;;;;;;;;;;;;
2023/01/06 04:55:45;;;;;;;3.40;0.60;;;;;;;9.69;100.00;101420.50;4917641;29;20032;-96
2023/01/06 05:06:01;;;;;;;;;;;;;;;;;;;;;
2023/01/06 05:08:50;;;;;;;1.40;0.60;;;;;;;9.78;100.00;101424.72;4856466;29;20506;-95
2023/01/06 05:28:27;;;;;;;;;;;;;;;;;;;;;
2023/01/06 05:31:17;;;;;;;1.83;0.60;;;;;;;9.64;100.00;101412.09;4867661;29;20037;-94
2023/01/06 05:34:25;;;;;;;1.55;0.50;;;;;;;9.62;100.00;101411.47;4836672;29;20034;-95
2023/01/06 05:44:29;;;;;;;3.15;0.50;;;;;;;9.76;100.00;101426.81;4881635;29;20446;-94
2023/01/06 06:07:22;;;;;;;;;;;;;;;;;;;;;
2023/01/06 06:19:32;;;;;;;1.85;0.55;;;;;;;9.65;100.00;101420.06;4862598;29;20160;-95
2023/01/06 06:22:10;;;;;;;2.42;0.80;;;;;;;9.69;100.00;101423.22;4865681;29;20078;-95
2023/01/06 06:25:14;;;;;;;2.83;0.70;;;;;;;9.77;100.00;101441.19;4897321;29;20051;-94
2023/01/06 06:31:14;;;;;;;1.70;0.70;;;;;;;9.75;100.00;101430.56;4938410;29;20168;-91
2023/01/06 06:33:51;;;;;;;1.90;0.63;;;;;;;9.77;100.00;101428.50;4921847;29;20373;-95
2023/01/06 06:36:27;;;;;;;3.00;0.60;;;;;;;9.71;100.00;101417.59;4922766;29;20103;-91
2023/01/06 06:38:56;;;;;;;3.00;0.55;;;;;;;9.68;100.00;101407.97;4920688;29;20031;-92
2023/01/06 06:41:52;;;;;;;2.53;0.68;;;;;;;9.68;100.00;101423.41;4921252;29;20032;-91
2023/01/06 06:44:22;;;;;;;2.58;0.68;;;;;;;9.64;100.00;101420.22;4921170;29;20036;-91
2023/01/06 06:46:54;;;;;;;3.15;0.70;;;;;;;9.53;100.00;101426.19;4905619;29;20151;-90
2023/01/06 06:52:24;;;;;;;3.35;0.60;;;;;;;9.45;100.00;101428.00;4937807;29;20040;-90
2023/01/06 06:54:58;;;;;;;0.98;0.68;;;;;;;9.39;100.00;101415.22;4920907;29;20024;-91
2023/01/06 06:57:31;;;;;;;1.63;0.80;;;;;;;9.32;100.00;101432.47;4920779;29;20106;-93
2023/01/06 07:00:07;;;;;;;1.77;0.90;;;;;;;9.34;100.00;101441.22;4920090;29;20046;-91
2023/01/06 07:03:00;;;;;;;2.58;0.70;;;;;;;9.24;100.00;101427.97;4921310;29;20032;-92
2023/01/06 07:05:31;;;;;;;3.97;0.80;;;;;;;9.26;100.00;101431.34;4920824;29;20028;-91
2023/01/06 07:08:09;;;;;;;1.40;0.82;;;;;;;9.21;100.00;101437.34;4920805;29;20042;-91
2023/01/06 07:10:44;;;;;;;;;;;;;;;;;;;;;
2023/01/06 07:13:23;;;;;;;;;;;;;;;;;;;;;
2023/01/06 07:16:26;;;;;;;;;;;;;;;;;;;;;
2023/01/06 07:19:02;;;;;;;4.47;1.02;;;;;;;8.81;100.00;101442.28;4935590;29;20107;-91
2023/01/06 07:21:45;;;;;;;;;;;;;;;;;;;;;
2023/01/06 07:24:16;;;;;;;5.32;1.10;;;;;;;8.83;100.00;101461.03;4939009;29;20046;-91
2023/01/06 07:26:52;;;;;;;2.65;0.88;;;;;;;8.76;100.00;101452.84;4905869;29;20126;-91
2023/01/06 07:29:29;;;;;;;3.80;1.35;;;;;;;8.77;100.00;101459.94;4924381;29;20035;-92
2023/01/06 07:32:04;;;;;;;4.30;1.00;;;;;;;8.73;100.00;101451.34;4920629;29;20023;-92
2023/01/06 07:34:37;;;;;;;1.92;1.20;;;;;;;8.68;100.00;101439.41;4906193;29;20040;-91
2023/01/06 07:37:16;;;;;;;2.95;1.25;;;;;;;8.65;100.00;101443.34;4920193;29;20049;-92
2023/01/06 07:40:07;;;;;;;3.50;1.30;;;;;;;8.65;100.00;101447.91;4906265;29;20449;-91
2023/01/06 07:42:41;;;;;;;3.13;1.25;;;;;;;8.63;100.00;101452.66;4907696;29;20044;-91
2023/01/06 07:45:29;;;;;;;7.72;1.67;;;;;;;8.64;100.00;101452.47;4919437;29;20532;-91
2023/01/06 07:48:10;;;;;;;5.03;1.40;;;;;;;8.62;100.00;101457.22;4913923;29;20039;-93
2023/01/06 07:51:05;;;;;;;2.00;1.40;;;;;;;8.64;100.00;101476.81;4920785;29;20046;-93
2023/01/06 07:53:56;;;;;;;3.08;1.10;;;;;;;8.62;100.00;101476.16;4922876;29;20106;-92
2023/01/06 07:56:42;;;;;;;;;;;;;;;;;;;;;
2023/01/06 08:00:06;;;;;;;4.80;1.02;;;;;;;8.73;100.00;101508.16;4921637;29;20031;-91
2023/01/06 08:03:23;;;;;;;;;;;;;;;;;;;;;
2023/01/06 08:05:58;;;;;;;2.38;1.20;;;;;;;8.78;100.00;101500.34;4933711;29;20054;-92
2023/01/06 08:08:55;;;;;;;2.38;1.10;;;;;;;8.81;100.00;101490.97;4919536;29;20468;-91
2023/01/06 08:12:01;;;;;;;1.67;1.08;;;;;;;8.83;100.00;101507.88;4919460;29;20046;-91
2023/01/06 08:14:40;;;;;;;1.90;1.15;;;;;;;8.86;100.00;101488.56;4901880;29;20051;-91
2023/01/06 08:20:07;;;;;;;;;;;;;;;;;;;;;
2023/01/06 08:22:48;;;;;;;3.40;1.52;;;;;;;9.11;100.00;101509.91;4937449;29;20036;-92
2023/01/06 08:25:21;;;;;;;2.70;1.48;;;;;;;9.19;100.00;101514.38;4906127;29;20122;-93
2023/01/06 08:27:57;;;;;;;;;;;;;;;;;;;;;
2023/01/06 08:30:38;;;;;;;;;;;;;;;;;;;;;
2023/01/06 08:33:26;;;;;;;;;;;;;;;;;;;;;
2023/01/06 08:36:35;;;;;;;4.45;1.25;;;;;;;9.44;100.00;101537.38;4940464;29;20431;-92
2023/01/06 08:39:09;;;;;;;2.13;1.30;;;;;;;9.44;100.00;101531.13;4919586;29;20044;-93
2023/01/06 08:41:50;;;;;;;4.10;1.38;;;;;;;9.47;100.00;101547.81;4919965;29;20039;-93
2023/01/06 08:44:36;;;;;;;2.00;1.35;;;;;;;9.48;100.00;101557.63;4919792;29;20066;-93
2023/01/06 08:47:28;;;;;;;2.78;1.50;;;;;;;9.48;100.00;101554.91;4920110;29;20377;-90
2023/01/06 08:50:30;;;;;;;;;;;;;;;;;;;;;
2023/01/06 08:53:01;;;;;;;2.40;1.50;;;;;;;9.54;100.00;101555.22;4923935;29;20092;-93
2023/01/06 08:56:10;;;;;;;2.00;1.25;;;;;;;9.66;100.00;101572.63;4923011;29;20043;-91
2023/01/06 08:59:02;;;;;;;;;;;;;;;;;;;;;
2023/01/06 09:01:47;;;;;;;5.18;1.90;;;;;;;9.68;100.00;101561.59;4926521;29;20038;-92
2023/01/06 09:04:23;;;;;;;2.67;1.83;;;;;;;9.66;100.00;101565.31;4922790;29;20048;-92
2023/01/06 09:06:57;;;;;;;4.07;2.40;;;;;;;9.74;100.00;101566.25;4908768;29;20064;-92
2023/01/06 09:10:03;;;;;;;;;;;;;;;;;;;;;
2023/01/06 09:12:45;;;;;;;2.90;2.03;;;;;;;9.86;100.00;101585.53;4940282;29;20039;-92
2023/01/06 09:15:23;;;;;;;2.80;2.55;;;;;;;9.84;100.00;101581.16;4923296;29;20119;-92
2023/01/06 09:18:18;;;;;;;3.55;2.85;;;;;;;9.89;100.00;101575.19;4921526;29;20123;-92
2023/01/06 09:20:50;;;;;;;4.55;2.70;;;;;;;9.91;100.00;101581.22;4945314;29;20027;-92
2023/01/06 09:23:39;;;;;;;3.63;2.80;;;;;;;10.00;100.00;101590.91;4923768;29;20036;-91
2023/01/06 09:26:33;;;;;;;3.50;2.88;;;;;;;10.03;100.00;101600.53;4923894;29;20076;-92
2023/01/06 09:29:33;;;;;;;4.88;2.80;;;;;;;10.02;100.00;101604.25;4920188;29;20059;-91
2023/01/06 09:32:18;;;;;;;6.75;3.13;;;;;;;10.03;100.00;101610.53;4915624;29;20044;-91
2023/01/06 09:34:51;;;;;;;4.68;2.75;;;;;;;10.07;100.00;101612.69;4905959;29;20066;-93
2023/01/06 09:37:25;;;;;;;4.20;2.70;;;;;;;9.98;100.00;101606.53;4907043;29;20035;-91
2023/01/06 09:40:29;;;;;;;6.15;2.72;;;;;;;10.04;100.00;101614.91;4892423;29;20046;-91
2023/01/06 09:43:50;;;;;;;4.90;2.92;;;;;;;10.08;100.00;101619.75;4910303;29;20131;-90
2023/01/06 09:46:30;;;;;;;3.67;2.85;;;;;;;10.13;100.00;101614.59;4938666;29;20035;-91
2023/01/06 09:49:19;;;;;;;5.43;2.58;;;;;;;10.29;100.00;101624.34;4922102;29;20024;-90
2023/01/06 09:51:54;;;;;;;5.90;2.90;;;;;;;10.35;100.00;101618.19;4923407;29;20094;-90
2023/01/06 09:55:16;;;;;;;;;;;;;;;;;;;;;
2023/01/06 09:58:04;;;;;;;;;;;;;;;;;;;;;
2023/01/06 10:00:41;;;;;;;7.43;3.25;;;;;;;10.63;100.00;101640.94;4940065;29;20032;-90
2023/01/06 10:03:43;;;;;;;5.57;3.00;;;;;;;10.80;100.00;101631.47;4938912;29;20035;-90
2023/01/06 10:06:43;;;;;;;7.85;3.80;;;;;;;10.76;100.00;101642.94;4921360;29;20056;-93
2023/01/06 10:09:45;;;;;;;;;;;;;;;;;;;;;
2023/01/06 10:12:35;;;;;;;7.18;3.20;;;;;;;10.65;100.00;101647.84;4938439;29;20039;-91
2023/01/06 10:15:39;;;;;;;5.70;2.80;;;;;;;10.56;100.00;101650.94;4922088;29;20039;-91
2023/01/06 10:18:38;;;;;;;;;;;;;;;;;;;;;
2023/01/06 10:21:49;;;;;;;5.93;2.65;;;;;;;10.43;100.00;101629.94;4898185;29;20052;-91
2023/01/06 10:24:44;;;;;;;5.97;2.55;;;;;;;10.41;100.00;101640.97;4915024;29;20051;-91
2023/01/06 10:27:36;;;;;;;3.95;2.55;;;;;;;10.46;100.00;101648.53;4915847;29;20488;-92
2023/01/06 10:30:39;;;;;;;3.65;1.98;;;;;;;10.38;100.00;101637.81;4921810;29;20055;-91
2023/01/06 10:33:29;;;;;;;3.47;2.53;;;;;;;10.36;100.00;101638.00;4903996;29;20039;-92
2023/01/06 10:36:36;;;;;;;5.53;2.35;;;;;;;10.40;100.00;101627.63;4938084;29;20539;-91
2023/01/06 10:39:05;;;;;;;4.88;2.55;;;;;;;10.50;100.00;101642.50;4938842;29;20090;-90
2023/01/06 10:45:12;;;;;;;3.67;2.95;;;;;;;10.58;100.00;101635.28;4939944;29;20102;-90
2023/01/06 10:48:00;;;;;;;;;;;;;;;;;;;;;
2023/01/06 10:53:44;;;;;;;6.90;4.35;;;;;;;10.64;100.00;101623.63;4925078;29;20050;-90
2023/01/06 10:56:43;;;;;;;7.65;3.92;;;;;;;10.65;100.00;101642.44;4892969;29;20099;-90
2023/01/06 10:59:43;;;;;;;9.80;5.10;;;;;;;10.58;100.00;101635.28;4920476;29;20043;-91
2023/01/06 11:02:32;;;;;;;;;;;;;;;;;;;;;
2023/01/06 11:05:29;;;;;;;;;;;;;;;;;;;;;
2023/01/06 11:11:18;;;;;;;9.57;5.28;;;;;;;10.50;100.00;101636.25;4937756;29;20483;-92
2023/01/06 11:13:56;;;;;;;7.80;5.53;;;;;;;10.53;100.00;101631.28;4920053;29;20449;-92
2023/01/06 11:16:42;;;;;;;9.07;5.57;;;;;;;10.73;100.00;101633.28;4937461;29;20118;-91
2023/01/06 11:19:41;;;;;;;6.57;5.60;;;;;;;10.94;100.00;101618.84;4937540;29;20063;-91
2023/01/06 11:22:55;;;;;;;7.90;6.10;;;;;;;11.15;99.38;101626.06;4921640;29;20035;-92
2023/01/06 11:25:37;;;;;;;6.15;4.38;;;;;;;11.15;93.28;101641.53;4935281;29;20083;-90
2023/01/06 11:28:31;;;;;;;7.50;4.28;;;;;;;10.97;93.37;101640.16;4905479;29;20469;-91
2023/01/06 11:31:19;;;;;;;;;;;;;;;;;;;;;
2023/01/06 11:34:28;;;;;;;;;;;;;;;;;;;;;
2023/01/06 11:36:58;;;;;;;4.78;3.42;;;;;;;10.78;92.74;101640.88;4937569;29;20035;-91
2023/01/06 11:39:31;;;;;;;5.05;3.15;;;;;;;10.77;92.28;101634.59;4920152;29;20473;-92
2023/01/06 11:42:26;;;;;;;6.47;3.58;;;;;;;10.75;91.61;101643.94;4919768;29;20046;-92
2023/01/06 11:44:54;;;;;;;7.53;3.67;;;;;;;10.73;91.18;101627.88;4906116;29;20050;-91
2023/01/06 11:47:44;;;;;;;11.43;3.55;;;;;;;10.77;89.66;101636.47;4904065;29;20142;-92
2023/01/06 11:50:32;;;;;;;6.78;3.35;;;;;;;10.78;90.47;101621.88;4905836;29;20067;-92
2023/01/06 11:53:25;;;;;;;8.85;3.17;;;;;;;10.83;90.33;101619.38;4919870;29;20036;-92
2023/01/06 11:56:18;;;;;;;9.18;3.00;;;;;;;10.85;89.02;101615.44;4919878;29;20132;-92
2023/01/06 11:59:25;;;;;;;5.28;2.60;;;;;;;10.86;87.83;101621.69;4920176;29;20063;-92
2023/01/06 12:02:36;;;;;;;5.40;2.10;;;;;;;10.99;88.39;101624.50;4919689;29;20039;-92
2023/01/06 12:05:25;;;;;;;7.30;2.78;;;;;;;11.16;86.57;101610.59;4918962;29;20078;-92
2023/01/06 12:08:03;;;;;;;6.40;2.13;;;;;;;11.30;84.51;101596.06;4905979;29;20090;-93
2023/01/06 12:11:00;;;;;;;;;;;;;;;;;;;;;
2023/01/06 12:13:56;;;;;;;6.18;2.33;;;;;;;11.52;85.20;101591.34;4923733;29;20408;-91
2023/01/06 12:17:04;;;;;;;7.78;3.03;;;;;;;11.38;84.63;101608.63;4919440;29;20051;-92
2023/01/06 12:20:06;;;;;;;5.82;3.25;;;;;;;11.44;86.03;101606.97;4919170;29;20043;-92
2023/01/06 12:25:46;;;;;;;7.90;3.50;;;;;;;13.33;78.61;101591.34;4927489;29;20404;-92
2023/01/06 12:28:40;;;;;;;9.20;3.90;;;;;;;13.14;79.83;101590.38;4923253;29;20027;-92
2023/01/06 12:32:18;;;;;;;;;;;;;;;;;;;;;
2023/01/06 12:35:04;;;;;;;9.13;4.00;;;;;;;14.55;74.44;101574.00;4942729;29;20127;-92
2023/01/06 12:37:47;;;;;;;7.05;4.28;;;;;;;15.33;73.37;101572.56;4924094;29;20034;-92
2023/01/06 12:40:46;;;;;;;12.50;4.30;;;;;;;18.28;64.18;101568.00;4923150;29;20126;-92
2023/01/06 12:43:52;;;;;;;7.20;3.90;;;;;;;20.73;63.74;101583.22;4923995;29;20095;-93
2023/01/06 12:46:56;;;;;;;;;;;;;;;;;;;;;
2023/01/06 12:50:29;;;;;;;6.45;3.85;;;;;;;21.03;57.29;101588.09;4940487;29;20042;-92
2023/01/06 12:53:25;;;;;;;5.43;3.70;;;;;;;21.58;56.80;101591.38;4872343;29;20471;-93
2023/01/06 12:56:29;;;;;;;;;;;;;;;;;;;;;
2023/01/06 12:59:46;;;;;;;;;;;;;;;;;;;;;
2023/01/06 13:02:42;;;;;;;8.65;3.97;;;;;;;16.97;62.10;101591.53;4924941;29;20055;-93
2023/01/06 13:05:52;;;;;;;4.80;3.17;;;;;;;15.93;65.82;101606.53;4923658;29;20074;-92
2023/01/06 13:08:39;;;;;;;;;;;;;;;;;;;;;
2023/01/06 13:11:55;;;;;;;;;;;;;;;;;;;;;
2023/01/06 13:14:43;;;;;;;8.87;2.40;;;;;;;14.11;71.26;101593.03;4940266;29;20480;-92
2023/01/06 13:17:51;;;;;;;;;;;;;;;;;;;;;
2023/01/06 13:20:42;;;;;;;6.15;1.67;;;;;;;13.61;73.32;101604.69;4920380;29;20039;-93
2023/01/06 13:23:36;;;;;;;5.05;1.60;;;;;;;13.33;75.03;101605.81;4923136;29;20039;-91
2023/01/06 13:26:18;;;;;;;3.13;1.02;;;;;;;13.37;74.12;101586.34;4922317;29;20046;-92
2023/01/06 13:29:35;;;;;;;;;;;;;;;;;;;;;
2023/01/06 13:32:31;;;;;;;5.05;0.80;;;;;;;13.16;75.57;101613.59;4899184;29;20596;-92
2023/01/06 13:35:08;;;;;;;;;;;;;;;;;;;;;
2023/01/06 13:38:02;;;;;;;5.72;1.25;;;;;;;12.70;78.49;101576.44;4938266;29;20039;-92
2023/01/06 13:40:40;;;;;;;4.75;1.17;;;;;;;12.63;79.31;101590.03;4922476;29;20035;-91
2023/01/06 13:43:49;;;;;;;;;;;;;;;;;;;;;
2023/01/06 13:46:31;;;;;;;3.95;0.90;;;;;;;12.56;81.32;101574.75;4939802;29;20032;-92
2023/01/06 13:49:19;;;;;;;3.13;1.30;;;;;;;12.68;81.75;101580.41;4922667;29;20103;-91
2023/01/06 13:52:23;;;;;;;5.68;1.60;;;;;;;13.22;80.86;101571.06;4900359;29;20115;-92
2023/01/06 13:54:49;;;;;;;3.10;1.05;;;;;;;13.68;77.83;101580.09;4921226;29;20048;-92
2023/01/06 14:01:04;;;;;;;5.55;1.45;;;;;;;14.54;74.69;101573.19;4938702;29;20035;-91
2023/01/06 14:03:44;;;;;;;6.07;1.10;;;;;;;15.11;71.63;101564.00;4922287;29;20028;-91
2023/01/06 14:07:08;;;;;;;2.80;0.90;;;;;;;15.50;73.07;101567.31;4921134;29;20203;-92
2023/01/06 14:09:56;;;;;;;;;;;;;;;;;;;;;
2023/01/06 14:12:46;;;;;;;6.53;1.10;;;;;;;15.57;70.23;101578.97;4939529;29;20044;-92
2023/01/06 14:15:54;;;;;;;4.22;1.48;;;;;;;15.01;72.55;101566.44;4907066;29;20046;-91
2023/01/06 14:19:01;;;;;;;;;;;;;;;;;;;;;
2023/01/06 14:22:11;;;;;;;;;;;;;;;;;;;;;
2023/01/06 14:25:07;;;;;;;5.85;1.30;;;;;;;14.80;74.68;101578.63;4929649;29;20044;-92
2023/01/06 14:28:08;;;;;;;2.83;1.10;;;;;;;15.35;73.97;101564.13;4921613;29;20035;-92
2023/01/06 14:30:47;;;;;;;;;;;;;;;;;;;;;
2023/01/06 14:33:36;;;;;;;3.38;1.17;;;;;;;16.23;71.08;101567.31;4930065;29;20130;-92
2023/01/06 14:36:37;;;;;;;2.83;1.50;;;;;;;15.94;69.53;101567.97;4915009;29;20048;-92
2023/01/06 14:39:24;;;;;;;2.85;1.38;;;;;;;15.32;71.12;101562.69;4938103;29;20051;-92
2023/01/06 14:43:06;;;;;;;;;;;;;;;;;;;;;
2023/01/06 14:46:05;;;;;;;2.42;1.27;;;;;;;14.62;75.12;101542.03;4931288;29;20483;-93
2023/01/06 14:48:49;;;;;;;;;;;;;;;;;;;;;
2023/01/06 14:51:25;;;;;;;3.97;1.10;;;;;;;14.50;77.52;101546.56;4938821;29;20042;-91
2023/01/06 14:54:57;;;;;;;2.22;1.20;;;;;;;14.59;78.11;101556.13;4921106;29;20066;-91
2023/01/06 14:57:56;;;;;;;;;;;;;;;;;;;;;
2023/01/06 15:00:52;;;;;;;1.92;1.33;;;;;;;13.89;79.65;101575.34;4935601;29;20047;-92
2023/01/06 15:03:50;;;;;;;3.47;1.40;;;;;;;13.20;82.58;101554.09;4907652;29;20039;-92
2023/01/06 15:06:34;;;;;;;;;;;;;;;;;;;;;
2023/01/06 15:09:59;;;;;;;2.00;1.13;;;;;;;12.53;87.62;101550.69;4907836;29;20046;-92
2023/01/06 15:12:51;;;;;;;1.57;1.07;;;;;;;12.36;89.34;101542.97;4916880;29;20046;-91
2023/01/06 15:16:05;;;;;;;;;;;;;;;;;;;;;
2023/01/06 15:18:43;;;;;;;1.40;0.88;;;;;;;11.85;92.35;101560.66;4937523;29;20050;-92
2023/01/06 15:24:35;;;;;;;;;;;;;;;;;;;;;
2023/01/06 15:27:47;;;;;;;1.90;1.20;;;;;;;11.17;96.71;101555.25;4932505;29;20055;-92
2023/01/06 15:31:00;;;;;;;;;;;;;;;;;;;;;
2023/01/06 15:40:59;;;;;;;2.55;1.48;;;;;;;10.59;100.00;101560.97;4902587;29;20115;-91
2023/01/06 15:47:11;;;;;;;;;;;;;;;;;;;;;
2023/01/06 15:53:58;;;;;;;3.10;1.63;;;;;;;10.13;100.00;101564.97;4934031;29;20122;-92
2023/01/06 15:56:43;;;;;;;;;;;;;;;;;;;;;
2023/01/06 15:59:59;;;;;;;3.03;1.70;;;;;;;10.18;100.00;101576.06;4936283;29;20028;-92
2023/01/06 16:06:33;;;;;;;;;;;;;;;;;;;;;
2023/01/06 16:09:49;;;;;;;2.72;2.00;;;;;;;9.96;100.00;101565.22;4892004;29;20044;-92
2023/01/06 16:12:45;;;;;;;4.45;3.08;;;;;;;9.92;100.00;101568.50;4897059;29;20032;-92
2023/01/06 16:19:14;;;;;;;;;;;;;;;;;;;;;
2023/01/06 16:22:13;;;;;;;;;;;;;;;;;;;;;
2023/01/06 16:25:12;;;;;;;3.80;2.75;;;;;;;9.83;100.00;101560.50;4937287;29;20108;-91
2023/01/06 16:27:39;;;;;;;4.78;3.22;;;;;;;9.75;100.00;101549.78;4932633;29;20044;-91
2023/01/06 16:30:14;;;;;;;5.03;3.72;;;;;;;9.71;100.00;101548.50;4919759;29;20127;-91
2023/01/06 16:32:48;;;;;;;4.25;3.53;;;;;;;9.73;100.00;101542.88;4920198;29;20044;-91
2023/01/06 16:35:21;;;;;;;4.43;3.30;;;;;;;9.77;100.00;101560.44;4919402;29;20051;-90
2023/01/06 16:37:49;;;;;;;3.97;3.10;;;;;;;9.69;100.00;101552.44;4919538;29;20083;-91
2023/01/06 16:40:44;;;;;;;3.95;3.33;;;;;;;9.69;100.00;101561.41;4918829;29;20035;-91
2023/01/06 16:43:11;;;;;;;3.63;3.05;;;;;;;9.72;100.00;101557.47;4935945;29;20040;-91
2023/01/06 16:45:50;;;;;;;;;;;;;;;;;;;;;
2023/01/06 16:48:16;;;;;;;3.47;3.15;;;;;;;9.76;100.00;101551.47;4936604;29;20032;-90
2023/01/06 16:50:59;;;;;;;;;;;;;;;;;;;;;
2023/01/06 16:53:38;;;;;;;5.38;3.63;;;;;;;9.65;100.00;101533.88;4937091;29;20256;-91
2023/01/06 16:56:32;;;;;;;;;;;;;;;;;;;;;
2023/01/06 16:59:07;;;;;;;5.38;3.92;;;;;;;9.63;100.00;101552.16;4936733;29;20483;-91
2023/01/06 17:01:55;;;;;;;5.93;3.90;;;;;;;9.60;100.00;101543.59;4919390;29;20043;-91
2023/01/06 17:04:30;;;;;;;5.55;4.03;;;;;;;9.65;100.00;101551.97;4936390;29;20118;-91
2023/01/06 17:07:00;;;;;;;6.65;4.30;;;;;;;9.59;100.00;101528.34;4900477;29;20063;-91
2023/01/06 17:09:28;;;;;;;5.30;4.65;;;;;;;9.66;100.00;101551.78;4915733;29;20114;-91
2023/01/06 17:11:54;;;;;;;5.20;4.13;;;;;;;9.58;100.00;101541.06;4918174;29;20035;-90
2023/01/06 17:14:26;;;;;;;5.93;4.30;;;;;;;9.60;100.00;101544.44;4919253;29;20024;-90
2023/01/06 17:16:52;;;;;;;6.25;4.13;;;;;;;9.63;100.00;101548.63;4903882;29;20051;-90
2023/01/06 17:19:31;;;;;;;4.13;3.72;;;;;;;9.75;100.00;101559.78;4919122;29;20032;-90
2023/01/06 17:22:20;;;;;;;7.10;4.10;;;;;;;9.71;100.00;101542.25;4919065;29;20028;-91
2023/01/06 17:24:51;;;;;;;4.97;3.78;;;;;;;9.75;100.00;101530.81;4919389;29;20139;-91
2023/01/06 17:27:57;;;;;;;;;;;;;;;;;;;;;
2023/01/06 17:30:22;;;;;;;5.90;3.90;;;;;;;9.89;100.00;101542.66;4915235;29;20540;-91
2023/01/06 17:33:06;;;;;;;5.13;3.67;;;;;;;9.86;100.00;101536.75;4903385;29;20188;-91
2023/01/06 17:38:55;;;;;;;5.03;3.58;;;;;;;9.92;100.00;101533.25;4871855;29;20080;-92
2023/01/06 17:41:32;;;;;;;4.60;3.60;;;;;;;9.94;100.00;101520.38;4904154;29;20045;-91
2023/01/06 17:43:58;;;;;;;4.15;3.63;;;;;;;9.93;100.00;101535.78;4918810;29;20091;-90
2023/01/06 17:46:49;;;;;;;4.27;3.80;;;;;;;9.98;100.00;101546.03;4918188;29;20032;-91
2023/01/06 17:49:21;;;;;;;4.80;4.15;;;;;;;10.01;100.00;101532.94;4919232;29;20032;-90
2023/01/06 17:52:00;;;;;;;;;;;;;;;;;;;;;
2023/01/06 17:57:18;;;;;;;6.57;3.97;;;;;;;9.92;100.00;101528.69;4918741;29;20055;-91
2023/01/06 17:59:44;;;;;;;6.30;4.13;;;;;;;9.92;100.00;101538.69;4902538;29;20393;-91
2023/01/06 18:02:42;;;;;;;5.55;4.22;;;;;;;9.93;100.00;101543.91;4918390;29;20024;-91
2023/01/06 18:05:33;;;;;;;;;;;;;;;;;;;;;
2023/01/06 18:08:12;;;;;;;4.38;3.67;;;;;;;10.01;100.00;101546.50;4935306;29;20404;-92
2023/01/06 18:11:16;;;;;;;;;;;;;;;;;;;;;
2023/01/06 18:13:53;;;;;;;4.10;3.53;;;;;;;9.95;100.00;101541.00;4936690;29;20054;-93
2023/01/06 18:16:30;;;;;;;5.55;3.83;;;;;;;9.94;100.00;101542.88;4922066;29;20032;-92
2023/01/06 18:22:32;;;;;;;6.57;3.75;;;;;;;10.00;100.00;101557.53;4900245;29;20374;-91
2023/01/06 18:25:08;;;;;;;5.30;3.87;;;;;;;9.95;100.00;101555.41;4920831;29;20126;-91
2023/01/06 18:27:37;;;;;;;4.47;3.70;;;;;;;9.92;100.00;101555.81;4922636;29;20040;-91
2023/01/06 18:30:26;;;;;;;4.68;3.95;;;;;;;9.85;100.00;101563.03;4905459;29;20134;-91
2023/01/06 18:33:00;;;;;;;5.30;4.05;;;;;;;9.78;100.00;101554.00;4921495;29;20491;-92
2023/01/06 18:41:38;;;;;;;3.70;3.30;;;;;;;9.54;100.00;101553.31;4904143;29;20058;-93
2023/01/06 18:44:25;;;;;;;4.30;3.70;;;;;;;9.58;100.00;101551.06;4920239;29;20035;-93
2023/01/06 18:47:01;;;;;;;3.92;3.35;;;;;;;9.58;100.00;101556.47;4921212;29;20055;-92
2023/01/06 18:49:35;;;;;;;6.55;3.72;;;;;;;9.48;100.00;101549.50;4920909;29;20028;-91
2023/01/06 18:52:40;;;;;;;4.53;3.63;;;;;;;9.53;100.00;101570.59;4921187;29;20035;-91
2023/01/06 19:01:44;;;;;;;;;;;;;;;;;;;;;
2023/01/06 19:04:36;;;;;;;8.05;5.05;;;;;;;9.43;100.00;101549.25;4922499;29;20066;-90
2023/01/06 19:07:37;;;;;;;8.80;4.87;;;;;;;9.43;100.00;101548.41;4903992;29;20083;-91
2023/01/06 19:10:26;;;;;;;7.28;5.80;;;;;;;9.41;100.00;101537.75;4920781;29;20073;-91
2023/01/06 19:13:18;;;;;;;7.15;5.45;;;;;;;9.46;100.00;101548.88;4919100;29;20039;-91
2023/01/06 19:15:59;;;;;;;6.53;5.68;;;;;;;9.42;100.00;101539.44;4906969;29;20543;-90
2023/01/06 19:18:44;;;;;;;;;;;;;;;;;;;;;
2023/01/06 19:21:18;;;;;;;8.83;6.17;;;;;;;9.41;100.00;101545.88;4937066;29;20028;-91
2023/01/06 19:23:56;;;;;;;7.85;6.32;;;;;;;9.44;100.00;101537.38;4919565;29;20500;-90
2023/01/06 19:26:40;;;;;;;10.18;6.90;;;;;;;9.43;100.00;101538.41;4920040;29;20059;-90
2023/01/06 19:29:16;;;;;;;10.77;7.18;;;;;;;9.46;100.00;101534.47;4919688;29;20044;-91
2023/01/06 19:32:04;;;;;;;9.30;7.45;;;;;;;9.42;100.00;101533.16;4919903;29;20042;-90
2023/01/06 19:34:32;;;;;;;10.37;7.13;;;;;;;9.41;100.00;101534.22;4919869;29;20111;-90
2023/01/06 19:37:12;;;;;;;12.23;7.97;;;;;;;9.42;100.00;101531.31;4919449;29;20463;-90
2023/01/06 19:39:42;;;;;;;10.13;7.43;;;;;;;9.38;100.00;101540.00;4919979;29;20034;-89
2023/01/06 19:42:28;;;;;;;;;;;;;;;;;;;;;
2023/01/06 19:45:22;;;;;;;11.38;8.48;;;;;;;9.38;100.00;101542.72;4937062;29;20031;-90
2023/01/06 19:48:30;;;;;;;10.87;7.37;;;;;;;9.44;100.00;101545.50;4914097;29;20044;-90
2023/01/06 19:51:18;;;;;;;10.88;8.23;;;;;;;9.36;100.00;101533.94;4936558;29;20473;-91
2023/01/06 19:53:56;;;;;;;10.90;7.88;;;;;;;9.35;100.00;101540.41;4936628;29;20058;-91